sensor_id;sensor_type;location;lat;lon;timestamp;pressure;altitude;pressure_sealevel;temperature;humidity
82746;BME280;72484;50.004;14.356;2023-08-31T00:00:19;97249.13;;;15.76;68.36
82746;BME280;72484;50.004;14.356;2023-08-31T00:03:28;97250.61;;;15.69;68.37
82746;BME280;72484;50.004;14.356;2023-08-31T00:06:17;97253.98;;;15.65;68.43
82746;BME280;72484;50.004;14.356;2023-08-31T00:09:36;97255.53;;;15.64;68.40
82746;BME280;72484;50.004;14.356;2023-08-31T00:12:26;97255.55;;;15.59;68.34
82746;BME280;72484;50.004;14.356;2023-08-31T00:15:15;97257.43;;;15.58;68.55
82746;BME280;72484;50.004;14.356;2023-08-31T00:18:04;97251.96;;;15.60;68.75
82746;BME280;72484;50.004;14.356;2023-08-31T00:21:32;97250.42;;;15.59;68.43
82746;BME280;72484;50.004;14.356;2023-08-31T00:24:21;97249.63;;;15.58;68.44
82746;BME280;72484;50.004;14.356;2023-08-31T00:27:16;97249.85;;;15.61;68.33
82746;BME280;72484;50.004;14.356;2023-08-31T00:30:07;97250.38;;;15.60;68.48
82746;BME280;72484;50.004;14.356;2023-08-31T00:32:56;97250.60;;;15.62;68.53
82746;BME280;72484;50.004;14.356;2023-08-31T00:35:46;97253.42;;;15.62;68.51
82746;BME280;72484;50.004;14.356;2023-08-31T00:38:39;97258.10;;;15.56;68.70
82746;BME280;72484;50.004;14.356;2023-08-31T00:41:29;97254.02;;;15.53;68.64
82746;BME280;72484;50.004;14.356;2023-08-31T00:44:18;97253.89;;;15.57;68.77
82746;BME280;72484;50.004;14.356;2023-08-31T00:47:06;97256.48;;;15.56;68.97
82746;BME280;72484;50.004;14.356;2023-08-31T00:49:55;97259.16;;;15.54;68.82
82746;BME280;72484;50.004;14.356;2023-08-31T00:52:44;97255.68;;;15.51;68.77
82746;BME280;72484;50.004;14.356;2023-08-31T00:58:35;97259.49;;;15.48;68.99
82746;BME280;72484;50.004;14.356;2023-08-31T01:01:30;97254.77;;;15.47;68.82
82746;BME280;72484;50.004;14.356;2023-08-31T01:04:34;97257.20;;;15.48;69.20
82746;BME280;72484;50.004;14.356;2023-08-31T01:07:34;97262.40;;;15.50;69.23
82746;BME280;72484;50.004;14.356;2023-08-31T01:10:32;97263.43;;;15.53;68.93
82746;BME280;72484;50.004;14.356;2023-08-31T01:13:26;97262.15;;;15.50;68.96
82746;BME280;72484;50.004;14.356;2023-08-31T01:16:18;97266.23;;;15.53;68.95
82746;BME280;72484;50.004;14.356;2023-08-31T01:19:21;97270.31;;;15.58;69.07
82746;BME280;72484;50.004;14.356;2023-08-31T01:22:13;97270.28;;;15.59;68.95
82746;BME280;72484;50.004;14.356;2023-08-31T01:25:05;97268.44;;;15.59;69.05
82746;BME280;72484;50.004;14.356;2023-08-31T01:27:56;97264.75;;;15.59;69.10
82746;BME280;72484;50.004;14.356;2023-08-31T01:30:44;97269.45;;;15.54;68.73
82746;BME280;72484;50.004;14.356;2023-08-31T01:33:34;97270.27;;;15.51;68.89
82746;BME280;72484;50.004;14.356;2023-08-31T01:36:26;97270.92;;;15.50;68.60
82746;BME280;72484;50.004;14.356;2023-08-31T01:39:19;97267.22;;;15.47;68.52
82746;BME280;72484;50.004;14.356;2023-08-31T01:42:12;97268.52;;;15.41;68.73
82746;BME280;72484;50.004;14.356;2023-08-31T01:45:03;97268.20;;;15.36;68.43
82746;BME280;72484;50.004;14.356;2023-08-31T01:47:52;97266.63;;;15.33;68.80
82746;BME280;72484;50.004;14.356;2023-08-31T01:50:40;97265.98;;;15.31;68.94
82746;BME280;72484;50.004;14.356;2023-08-31T01:53:29;97267.73;;;15.29;68.74
82746;BME280;72484;50.004;14.356;2023-08-31T01:56:17;97271.77;;;15.25;68.72
82746;BME280;72484;50.004;14.356;2023-08-31T01:59:06;97271.16;;;15.17;68.84
82746;BME280;72484;50.004;14.356;2023-08-31T02:01:54;97271.80;;;15.10;68.86
82746;BME280;72484;50.004;14.356;2023-08-31T02:04:43;97274.59;;;15.08;68.79
82746;BME280;72484;50.004;14.356;2023-08-31T02:07:32;97278.54;;;15.10;68.69
82746;BME280;72484;50.004;14.356;2023-08-31T02:10:20;97281.17;;;15.04;68.62
82746;BME280;72484;50.004;14.356;2023-08-31T02:13:09;97285.02;;;14.97;69.09
82746;BME280;72484;50.004;14.356;2023-08-31T02:15:57;97283.64;;;14.90;69.19
82746;BME280;72484;50.004;14.356;2023-08-31T02:18:45;97281.04;;;14.87;69.23
82746;BME280;72484;50.004;14.356;2023-08-31T02:21:34;97277.28;;;14.86;69.04
82746;BME280;72484;50.004;14.356;2023-08-31T02:24:22;97273.48;;;14.84;69.03
82746;BME280;72484;50.004;14.356;2023-08-31T02:27:11;97275.58;;;14.84;69.11
82746;BME280;72484;50.004;14.356;2023-08-31T02:29:59;97274.27;;;14.87;69.18
82746;BME280;72484;50.004;14.356;2023-08-31T02:32:49;97265.95;;;14.89;69.13
82746;BME280;72484;50.004;14.356;2023-08-31T02:35:40;97265.45;;;14.82;69.31
82746;BME280;72484;50.004;14.356;2023-08-31T02:38:29;97264.39;;;14.80;69.72
82746;BME280;72484;50.004;14.356;2023-08-31T02:41:17;97270.27;;;14.83;69.65
82746;BME280;72484;50.004;14.356;2023-08-31T02:44:06;97274.08;;;14.84;69.68
82746;BME280;72484;50.004;14.356;2023-08-31T02:46:54;97274.36;;;14.87;69.54
82746;BME280;72484;50.004;14.356;2023-08-31T02:49:43;97275.70;;;14.90;69.64
82746;BME280;72484;50.004;14.356;2023-08-31T02:52:31;97274.38;;;14.96;69.50
82746;BME280;72484;50.004;14.356;2023-08-31T02:55:19;97276.59;;;14.99;69.62
82746;BME280;72484;50.004;14.356;2023-08-31T02:58:08;97273.23;;;14.98;69.38
82746;BME280;72484;50.004;14.356;2023-08-31T03:00:57;97271.58;;;14.97;69.70
82746;BME280;72484;50.004;14.356;2023-08-31T03:03:54;97269.30;;;14.94;69.61
82746;BME280;72484;50.004;14.356;2023-08-31T03:06:42;97272.05;;;14.89;69.52
82746;BME280;72484;50.004;14.356;2023-08-31T03:09:31;97272.91;;;14.88;69.90
82746;BME280;72484;50.004;14.356;2023-08-31T03:12:20;97271.73;;;14.87;69.99
82746;BME280;72484;50.004;14.356;2023-08-31T03:15:10;97271.59;;;14.91;69.87
82746;BME280;72484;50.004;14.356;2023-08-31T03:17:58;97274.58;;;14.93;70.11
82746;BME280;72484;50.004;14.356;2023-08-31T03:20:46;97278.14;;;14.94;70.26
82746;BME280;72484;50.004;14.356;2023-08-31T03:23:35;97278.36;;;14.94;70.31
82746;BME280;72484;50.004;14.356;2023-08-31T03:26:23;97280.55;;;14.96;70.21
82746;BME280;72484;50.004;14.356;2023-08-31T03:29:12;97283.55;;;15.00;70.36
82746;BME280;72484;50.004;14.356;2023-08-31T03:32:01;97287.04;;;14.99;70.40
82746;BME280;72484;50.004;14.356;2023-08-31T03:34:49;97291.52;;;15.00;70.44
82746;BME280;72484;50.004;14.356;2023-08-31T03:37:38;97289.95;;;15.03;70.55
82746;BME280;72484;50.004;14.356;2023-08-31T03:40:26;97286.65;;;15.06;70.50
82746;BME280;72484;50.004;14.356;2023-08-31T03:43:15;97285.98;;;15.11;70.44
82746;BME280;72484;50.004;14.356;2023-08-31T03:46:03;97281.33;;;15.15;70.53
82746;BME280;72484;50.004;14.356;2023-08-31T03:48:52;97279.21;;;15.20;70.62
82746;BME280;72484;50.004;14.356;2023-08-31T03:51:40;97287.24;;;15.27;70.62
82746;BME280;72484;50.004;14.356;2023-08-31T03:54:28;97293.70;;;15.25;70.24
82746;BME280;72484;50.004;14.356;2023-08-31T03:57:17;97292.70;;;15.17;70.48
82746;BME280;72484;50.004;14.356;2023-08-31T04:00:09;97296.55;;;15.15;70.43
82746;BME280;72484;50.004;14.356;2023-08-31T04:02:59;97298.90;;;15.14;70.34
82746;BME280;72484;50.004;14.356;2023-08-31T04:05:48;97302.23;;;15.18;70.45
82746;BME280;72484;50.004;14.356;2023-08-31T04:08:37;97301.29;;;15.19;70.71
82746;BME280;72484;50.004;14.356;2023-08-31T04:11:26;97300.45;;;15.25;70.35
82746;BME280;72484;50.004;14.356;2023-08-31T04:14:14;97303.39;;;15.26;70.15
82746;BME280;72484;50.004;14.356;2023-08-31T04:17:04;97313.87;;;15.25;70.34
82746;BME280;72484;50.004;14.356;2023-08-31T04:19:53;97317.85;;;15.22;70.46
82746;BME280;72484;50.004;14.356;2023-08-31T04:22:42;97317.41;;;15.23;70.43
82746;BME280;72484;50.004;14.356;2023-08-31T04:25:31;97320.02;;;15.24;70.44
82746;BME280;72484;50.004;14.356;2023-08-31T04:28:20;97326.58;;;15.23;70.37
82746;BME280;72484;50.004;14.356;2023-08-31T04:31:09;97328.67;;;15.23;70.36
82746;BME280;72484;50.004;14.356;2023-08-31T04:33:58;97334.67;;;15.21;70.38
82746;BME280;72484;50.004;14.356;2023-08-31T04:36:46;97338.11;;;15.17;70.79
82746;BME280;72484;50.004;14.356;2023-08-31T04:39:35;97344.17;;;15.11;70.79
82746;BME280;72484;50.004;14.356;2023-08-31T04:42:24;97344.80;;;15.10;70.66
82746;BME280;72484;50.004;14.356;2023-08-31T04:45:12;97351.66;;;15.11;70.62
82746;BME280;72484;50.004;14.356;2023-08-31T04:48:01;97358.13;;;15.12;70.65
82746;BME280;72484;50.004;14.356;2023-08-31T04:50:51;97360.43;;;15.13;70.79
82746;BME280;72484;50.004;14.356;2023-08-31T04:53:41;97360.38;;;15.14;70.78
82746;BME280;72484;50.004;14.356;2023-08-31T04:56:31;97368.55;;;15.13;70.66
82746;BME280;72484;50.004;14.356;2023-08-31T04:59:20;97375.44;;;15.11;70.78
82746;BME280;72484;50.004;14.356;2023-08-31T05:02:09;97381.28;;;15.12;70.83
82746;BME280;72484;50.004;14.356;2023-08-31T05:04:57;97386.16;;;15.10;70.88
82746;BME280;72484;50.004;14.356;2023-08-31T05:07:46;97389.59;;;15.11;71.04
82746;BME280;72484;50.004;14.356;2023-08-31T05:10:34;97389.28;;;15.11;71.28
82746;BME280;72484;50.004;14.356;2023-08-31T05:13:23;97393.84;;;15.11;71.64
82746;BME280;72484;50.004;14.356;2023-08-31T05:16:12;97395.52;;;15.09;71.89
82746;BME280;72484;50.004;14.356;2023-08-31T05:19:00;97392.46;;;15.07;72.13
82746;BME280;72484;50.004;14.356;2023-08-31T05:21:49;97396.46;;;15.02;72.30
82746;BME280;72484;50.004;14.356;2023-08-31T05:24:38;97395.52;;;14.97;72.31
82746;BME280;72484;50.004;14.356;2023-08-31T05:27:26;97395.84;;;14.92;72.56
82746;BME280;72484;50.004;14.356;2023-08-31T05:30:15;97402.02;;;14.87;73.12
82746;BME280;72484;50.004;14.356;2023-08-31T05:33:04;97412.59;;;14.84;72.97
82746;BME280;72484;50.004;14.356;2023-08-31T05:35:53;97412.38;;;14.88;72.78
82746;BME280;72484;50.004;14.356;2023-08-31T05:38:41;97413.05;;;14.91;72.88
82746;BME280;72484;50.004;14.356;2023-08-31T05:41:29;97415.18;;;14.97;72.64
82746;BME280;72484;50.004;14.356;2023-08-31T05:44:18;97421.04;;;15.05;72.49
82746;BME280;72484;50.004;14.356;2023-08-31T05:47:06;97428.00;;;15.09;72.27
82746;BME280;72484;50.004;14.356;2023-08-31T05:49:55;97426.15;;;15.18;72.57
82746;BME280;72484;50.004;14.356;2023-08-31T05:52:44;97428.86;;;15.31;72.07
82746;BME280;72484;50.004;14.356;2023-08-31T05:55:32;97434.48;;;15.38;72.13
82746;BME280;72484;50.004;14.356;2023-08-31T05:58:20;97439.60;;;15.46;72.04
82746;BME280;72484;50.004;14.356;2023-08-31T06:01:09;97446.84;;;15.52;71.71
82746;BME280;72484;50.004;14.356;2023-08-31T06:03:58;97449.35;;;15.56;71.42
82746;BME280;72484;50.004;14.356;2023-08-31T06:06:46;97452.30;;;15.53;71.23
82746;BME280;72484;50.004;14.356;2023-08-31T06:09:34;97456.13;;;15.51;71.32
82746;BME280;72484;50.004;14.356;2023-08-31T06:12:25;97452.93;;;15.50;71.09
82746;BME280;72484;50.004;14.356;2023-08-31T06:15:13;97450.25;;;15.45;71.34
82746;BME280;72484;50.004;14.356;2023-08-31T06:18:02;97455.55;;;15.38;72.07
82746;BME280;72484;50.004;14.356;2023-08-31T06:20:51;97460.09;;;15.30;72.33
82746;BME280;72484;50.004;14.356;2023-08-31T06:23:40;97461.94;;;15.28;72.42
82746;BME280;72484;50.004;14.356;2023-08-31T06:26:28;97469.06;;;15.29;72.45
82746;BME280;72484;50.004;14.356;2023-08-31T06:29:17;97479.41;;;15.30;72.63
82746;BME280;72484;50.004;14.356;2023-08-31T06:32:06;97479.71;;;15.32;72.80
82746;BME280;72484;50.004;14.356;2023-08-31T06:34:55;97481.14;;;15.33;72.60
82746;BME280;72484;50.004;14.356;2023-08-31T06:37:43;97482.04;;;15.38;72.72
82746;BME280;72484;50.004;14.356;2023-08-31T06:40:32;97479.25;;;15.44;72.52
82746;BME280;72484;50.004;14.356;2023-08-31T06:43:21;97484.43;;;15.48;72.62
82746;BME280;72484;50.004;14.356;2023-08-31T06:46:09;97487.52;;;15.50;72.62
82746;BME280;72484;50.004;14.356;2023-08-31T06:48:58;97491.85;;;15.55;72.24
82746;BME280;72484;50.004;14.356;2023-08-31T06:51:46;97493.69;;;15.58;72.20
82746;BME280;72484;50.004;14.356;2023-08-31T06:54:34;97493.12;;;15.61;72.20
82746;BME280;72484;50.004;14.356;2023-08-31T06:57:23;97491.35;;;15.68;72.11
82746;BME280;72484;50.004;14.356;2023-08-31T07:00:13;97491.17;;;15.77;72.03
82746;BME280;72484;50.004;14.356;2023-08-31T07:03:02;97493.81;;;15.80;71.88
82746;BME280;72484;50.004;14.356;2023-08-31T07:05:52;97497.63;;;15.79;71.74
82746;BME280;72484;50.004;14.356;2023-08-31T07:08:41;97496.71;;;15.78;71.91
82746;BME280;72484;50.004;14.356;2023-08-31T07:11:32;97499.71;;;15.79;71.94
82746;BME280;72484;50.004;14.356;2023-08-31T07:14:20;97499.17;;;15.83;71.68
82746;BME280;72484;50.004;14.356;2023-08-31T07:17:09;97501.45;;;15.92;71.13
82746;BME280;72484;50.004;14.356;2023-08-31T07:19:57;97503.61;;;15.97;71.23
82746;BME280;72484;50.004;14.356;2023-08-31T07:22:46;97508.09;;;16.00;70.24
82746;BME280;72484;50.004;14.356;2023-08-31T07:25:34;97506.91;;;16.02;69.75
82746;BME280;72484;50.004;14.356;2023-08-31T07:28:23;97507.81;;;16.01;69.48
82746;BME280;72484;50.004;14.356;2023-08-31T07:31:11;97510.61;;;15.99;69.14
82746;BME280;72484;50.004;14.356;2023-08-31T07:34:00;97515.45;;;16.00;69.15
82746;BME280;72484;50.004;14.356;2023-08-31T07:36:50;97520.14;;;16.03;69.41
82746;BME280;72484;50.004;14.356;2023-08-31T07:39:39;97526.77;;;16.07;68.29
82746;BME280;72484;50.004;14.356;2023-08-31T07:42:27;97531.30;;;16.09;67.87
82746;BME280;72484;50.004;14.356;2023-08-31T07:45:16;97540.13;;;16.07;67.32
82746;BME280;72484;50.004;14.356;2023-08-31T07:48:06;97545.99;;;16.09;67.57
82746;BME280;72484;50.004;14.356;2023-08-31T07:50:54;97544.29;;;16.15;66.61
82746;BME280;72484;50.004;14.356;2023-08-31T07:53:43;97545.62;;;16.16;65.95
82746;BME280;72484;50.004;14.356;2023-08-31T07:56:32;97545.97;;;16.17;65.75
82746;BME280;72484;50.004;14.356;2023-08-31T07:59:20;97547.95;;;16.25;65.89
82746;BME280;72484;50.004;14.356;2023-08-31T08:02:09;97544.57;;;16.32;65.27
82746;BME280;72484;50.004;14.356;2023-08-31T08:04:57;97544.50;;;16.36;64.78
82746;BME280;72484;50.004;14.356;2023-08-31T08:07:46;97549.52;;;16.40;64.74
82746;BME280;72484;50.004;14.356;2023-08-31T08:10:34;97554.36;;;16.42;64.75
82746;BME280;72484;50.004;14.356;2023-08-31T08:13:22;97551.28;;;16.37;63.83
82746;BME280;72484;50.004;14.356;2023-08-31T08:16:11;97550.24;;;16.30;62.93
82746;BME280;72484;50.004;14.356;2023-08-31T08:18:59;97549.39;;;16.25;62.97
82746;BME280;72484;50.004;14.356;2023-08-31T08:21:47;97549.79;;;16.23;63.21
82746;BME280;72484;50.004;14.356;2023-08-31T08:24:36;97551.46;;;16.26;63.52
82746;BME280;72484;50.004;14.356;2023-08-31T08:27:25;97556.62;;;16.28;62.66
82746;BME280;72484;50.004;14.356;2023-08-31T08:30:14;97560.64;;;16.26;62.19
82746;BME280;72484;50.004;14.356;2023-08-31T08:33:02;97562.30;;;16.22;62.84
82746;BME280;72484;50.004;14.356;2023-08-31T08:35:51;97563.30;;;16.28;63.00
82746;BME280;72484;50.004;14.356;2023-08-31T08:38:39;97560.70;;;16.44;63.26
82746;BME280;72484;50.004;14.356;2023-08-31T08:41:31;97561.56;;;16.63;62.21
82746;BME280;72484;50.004;14.356;2023-08-31T08:44:23;97565.55;;;16.77;61.85
82746;BME280;72484;50.004;14.356;2023-08-31T08:47:14;97570.38;;;16.82;59.94
82746;BME280;72484;50.004;14.356;2023-08-31T08:50:05;97568.11;;;16.80;59.58
82746;BME280;72484;50.004;14.356;2023-08-31T08:52:54;97571.02;;;16.78;59.75
82746;BME280;72484;50.004;14.356;2023-08-31T08:55:43;97571.08;;;16.78;60.33
82746;BME280;72484;50.004;14.356;2023-08-31T08:58:31;97572.89;;;16.86;60.84
82746;BME280;72484;50.004;14.356;2023-08-31T09:01:19;97564.98;;;17.01;61.09
82746;BME280;72484;50.004;14.356;2023-08-31T09:04:10;97563.64;;;17.17;60.02
82746;BME280;72484;50.004;14.356;2023-08-31T09:06:59;97562.45;;;17.29;59.66
82746;BME280;72484;50.004;14.356;2023-08-31T09:09:51;97561.27;;;17.42;60.47
82746;BME280;72484;50.004;14.356;2023-08-31T09:12:40;97562.63;;;17.57;59.40
82746;BME280;72484;50.004;14.356;2023-08-31T09:15:37;97564.01;;;17.57;57.77
82746;BME280;72484;50.004;14.356;2023-08-31T09:18:28;97565.25;;;17.50;57.64
82746;BME280;72484;50.004;14.356;2023-08-31T09:21:18;97565.22;;;17.41;57.64
82746;BME280;72484;50.004;14.356;2023-08-31T09:24:08;97569.30;;;17.35;57.91
82746;BME280;72484;50.004;14.356;2023-08-31T09:26:58;97572.40;;;17.34;58.19
82746;BME280;72484;50.004;14.356;2023-08-31T09:29:47;97573.20;;;17.41;57.47
82746;BME280;72484;50.004;14.356;2023-08-31T09:32:36;97577.30;;;17.47;57.62
82746;BME280;72484;50.004;14.356;2023-08-31T09:35:25;97581.04;;;17.54;58.02
82746;BME280;72484;50.004;14.356;2023-08-31T09:38:15;97584.15;;;17.55;56.30
82746;BME280;72484;50.004;14.356;2023-08-31T09:41:07;97585.42;;;17.46;56.22
82746;BME280;72484;50.004;14.356;2023-08-31T09:43:56;97587.16;;;17.35;56.69
82746;BME280;72484;50.004;14.356;2023-08-31T09:46:44;97590.48;;;17.28;58.08
82746;BME280;72484;50.004;14.356;2023-08-31T09:49:34;97597.30;;;17.25;58.44
82746;BME280;72484;50.004;14.356;2023-08-31T09:52:24;97601.08;;;17.21;56.95
82746;BME280;72484;50.004;14.356;2023-08-31T09:55:13;97603.52;;;17.19;57.74
82746;BME280;72484;50.004;14.356;2023-08-31T09:58:04;97601.05;;;17.17;57.75
82746;BME280;72484;50.004;14.356;2023-08-31T10:00:54;97590.77;;;17.18;58.62
82746;BME280;72484;50.004;14.356;2023-08-31T10:03:42;97583.09;;;17.21;56.49
82746;BME280;72484;50.004;14.356;2023-08-31T10:06:32;97593.48;;;17.21;55.78
82746;BME280;72484;50.004;14.356;2023-08-31T10:09:21;97599.14;;;17.23;55.49
82746;BME280;72484;50.004;14.356;2023-08-31T10:12:10;97598.77;;;17.28;55.62
82746;BME280;72484;50.004;14.356;2023-08-31T10:14:59;97604.88;;;17.39;55.57
82746;BME280;72484;50.004;14.356;2023-08-31T10:17:48;97603.83;;;17.45;52.85
82746;BME280;72484;50.004;14.356;2023-08-31T10:20:39;97606.96;;;17.48;52.12
82746;BME280;72484;50.004;14.356;2023-08-31T10:23:30;97610.79;;;17.49;51.61
82746;BME280;72484;50.004;14.356;2023-08-31T10:26:29;97608.92;;;17.47;52.62
82746;BME280;72484;50.004;14.356;2023-08-31T10:29:28;97604.86;;;17.48;52.60
82746;BME280;72484;50.004;14.356;2023-08-31T10:32:19;97607.01;;;17.45;52.28
82746;BME280;72484;50.004;14.356;2023-08-31T10:35:10;97612.64;;;17.41;52.88
82746;BME280;72484;50.004;14.356;2023-08-31T10:41:21;97614.80;;;17.35;51.99
82746;BME280;72484;50.004;14.356;2023-08-31T10:44:21;97612.60;;;17.23;52.32
82746;BME280;72484;50.004;14.356;2023-08-31T10:47:08;97613.98;;;17.23;53.32
82746;BME280;72484;50.004;14.356;2023-08-31T10:49:55;97611.14;;;17.32;53.89
82746;BME280;72484;50.004;14.356;2023-08-31T10:52:45;97612.65;;;17.43;53.62
82746;BME280;72484;50.004;14.356;2023-08-31T10:55:32;97614.30;;;17.52;52.05
82746;BME280;72484;50.004;14.356;2023-08-31T10:58:19;97613.63;;;17.53;51.51
82746;BME280;72484;50.004;14.356;2023-08-31T11:01:05;97612.75;;;17.46;50.87
82746;BME280;72484;50.004;14.356;2023-08-31T11:03:59;97609.98;;;17.43;51.39
82746;BME280;72484;50.004;14.356;2023-08-31T11:06:46;97608.46;;;17.47;51.63
82746;BME280;72484;50.004;14.356;2023-08-31T11:09:32;97611.44;;;17.53;53.14
82746;BME280;72484;50.004;14.356;2023-08-31T11:12:22;97609.80;;;17.66;52.41
82746;BME280;72484;50.004;14.356;2023-08-31T11:15:11;97609.44;;;17.80;51.48
82746;BME280;72484;50.004;14.356;2023-08-31T11:17:58;97612.20;;;17.91;51.84
82746;BME280;72484;50.004;14.356;2023-08-31T11:20:48;97605.70;;;18.01;51.71
82746;BME280;72484;50.004;14.356;2023-08-31T11:23:36;97608.91;;;18.13;52.69
82746;BME280;72484;50.004;14.356;2023-08-31T11:26:23;97607.05;;;18.25;53.02
82746;BME280;72484;50.004;14.356;2023-08-31T11:29:10;97609.73;;;18.32;52.55
82746;BME280;72484;50.004;14.356;2023-08-31T11:31:57;97610.73;;;18.37;51.79
82746;BME280;72484;50.004;14.356;2023-08-31T11:34:48;97608.73;;;18.46;50.36
82746;BME280;72484;50.004;14.356;2023-08-31T11:37:38;97606.38;;;18.54;50.79
82746;BME280;72484;50.004;14.356;2023-08-31T11:40:26;97608.14;;;18.58;51.25
82746;BME280;72484;50.004;14.356;2023-08-31T11:43:15;97606.02;;;18.53;51.31
82746;BME280;72484;50.004;14.356;2023-08-31T11:46:02;97606.75;;;18.48;51.58
82746;BME280;72484;50.004;14.356;2023-08-31T11:48:50;97603.25;;;18.51;51.82
82746;BME280;72484;50.004;14.356;2023-08-31T11:51:37;97603.65;;;18.55;52.12
82746;BME280;72484;50.004;14.356;2023-08-31T11:54:26;97606.13;;;18.58;52.33
82746;BME280;72484;50.004;14.356;2023-08-31T11:57:12;97605.59;;;18.57;52.24
82746;BME280;72484;50.004;14.356;2023-08-31T12:00:00;97609.30;;;18.49;51.10
82746;BME280;72484;50.004;14.356;2023-08-31T12:02:57;97614.05;;;18.41;51.42
82746;BME280;72484;50.004;14.356;2023-08-31T12:05:48;97616.58;;;18.36;52.15
82746;BME280;72484;50.004;14.356;2023-08-31T12:08:37;97616.46;;;18.35;52.16
82746;BME280;72484;50.004;14.356;2023-08-31T12:11:24;97615.98;;;18.33;51.83
82746;BME280;72484;50.004;14.356;2023-08-31T12:14:21;97615.63;;;18.32;52.16
82746;BME280;72484;50.004;14.356;2023-08-31T12:17:08;97619.66;;;18.29;52.03
82746;BME280;72484;50.004;14.356;2023-08-31T12:20:03;97623.96;;;18.16;53.00
82746;BME280;72484;50.004;14.356;2023-08-31T12:22:51;97629.11;;;17.99;54.40
82746;BME280;72484;50.004;14.356;2023-08-31T12:25:38;97624.23;;;17.91;56.86
82746;BME280;72484;50.004;14.356;2023-08-31T12:28:25;97617.86;;;17.93;56.93
82746;BME280;72484;50.004;14.356;2023-08-31T12:31:12;97621.24;;;17.99;57.03
82746;BME280;72484;50.004;14.356;2023-08-31T12:33:59;97620.96;;;18.13;56.65
82746;BME280;72484;50.004;14.356;2023-08-31T12:36:46;97616.91;;;18.29;56.59
82746;BME280;72484;50.004;14.356;2023-08-31T12:39:32;97614.31;;;18.41;55.87
82746;BME280;72484;50.004;14.356;2023-08-31T12:42:19;97614.40;;;18.49;54.99
82746;BME280;72484;50.004;14.356;2023-08-31T12:45:07;97617.91;;;18.56;53.57
82746;BME280;72484;50.004;14.356;2023-08-31T12:47:54;97615.79;;;18.61;53.30
82746;BME280;72484;50.004;14.356;2023-08-31T12:50:40;97618.17;;;18.69;53.63
82746;BME280;72484;50.004;14.356;2023-08-31T12:53:27;97617.89;;;18.77;52.57
82746;BME280;72484;50.004;14.356;2023-08-31T12:56:13;97620.56;;;18.81;51.59
82746;BME280;72484;50.004;14.356;2023-08-31T12:59:00;97627.77;;;18.84;52.32
82746;BME280;72484;50.004;14.356;2023-08-31T13:01:47;97622.71;;;18.85;51.68
82746;BME280;72484;50.004;14.356;2023-08-31T13:04:34;97620.19;;;18.89;52.10
82746;BME280;72484;50.004;14.356;2023-08-31T13:07:21;97615.69;;;18.92;51.74
82746;BME280;72484;50.004;14.356;2023-08-31T13:10:09;97618.73;;;18.89;52.00
82746;BME280;72484;50.004;14.356;2023-08-31T13:12:55;97621.70;;;18.85;52.13
82746;BME280;72484;50.004;14.356;2023-08-31T13:15:42;97626.13;;;18.81;51.30
82746;BME280;72484;50.004;14.356;2023-08-31T13:18:28;97620.89;;;18.79;51.33
82746;BME280;72484;50.004;14.356;2023-08-31T13:21:15;97620.00;;;18.83;50.69
82746;BME280;72484;50.004;14.356;2023-08-31T13:24:01;97626.20;;;18.89;50.33
82746;BME280;72484;50.004;14.356;2023-08-31T13:26:48;97634.29;;;18.91;50.32
82746;BME280;72484;50.004;14.356;2023-08-31T13:29:34;97635.25;;;18.89;48.75
82746;BME280;72484;50.004;14.356;2023-08-31T13:32:21;97637.45;;;18.85;48.91
82746;BME280;72484;50.004;14.356;2023-08-31T13:35:09;97643.31;;;18.79;49.11
82746;BME280;72484;50.004;14.356;2023-08-31T13:37:56;97647.29;;;18.74;49.30
82746;BME280;72484;50.004;14.356;2023-08-31T13:40:42;97651.08;;;18.69;50.04
82746;BME280;72484;50.004;14.356;2023-08-31T13:43:29;97650.32;;;18.68;51.09
82746;BME280;72484;50.004;14.356;2023-08-31T13:46:15;97647.86;;;18.71;51.46
82746;BME280;72484;50.004;14.356;2023-08-31T13:49:02;97647.14;;;18.73;50.59
82746;BME280;72484;50.004;14.356;2023-08-31T13:51:50;97646.83;;;18.78;51.09
82746;BME280;72484;50.004;14.356;2023-08-31T13:54:36;97646.13;;;18.84;50.34
82746;BME280;72484;50.004;14.356;2023-08-31T13:57:22;97638.55;;;18.87;49.24
82746;BME280;72484;50.004;14.356;2023-08-31T14:00:11;97641.09;;;18.88;49.87
82746;BME280;72484;50.004;14.356;2023-08-31T14:02:58;97642.61;;;18.91;50.25
82746;BME280;72484;50.004;14.356;2023-08-31T14:05:49;97642.11;;;18.89;49.89
82746;BME280;72484;50.004;14.356;2023-08-31T14:08:35;97645.20;;;18.89;50.31
82746;BME280;72484;50.004;14.356;2023-08-31T14:11:22;97647.74;;;18.90;50.13
82746;BME280;72484;50.004;14.356;2023-08-31T14:14:08;97641.04;;;18.90;49.85
82746;BME280;72484;50.004;14.356;2023-08-31T14:16:56;97646.13;;;18.88;49.09
82746;BME280;72484;50.004;14.356;2023-08-31T14:19:43;97647.71;;;18.87;49.28
82746;BME280;72484;50.004;14.356;2023-08-31T14:22:29;97647.90;;;18.86;50.04
82746;BME280;72484;50.004;14.356;2023-08-31T14:25:16;97650.98;;;18.86;50.47
82746;BME280;72484;50.004;14.356;2023-08-31T14:28:03;97647.36;;;18.87;51.11
82746;BME280;72484;50.004;14.356;2023-08-31T14:30:49;97646.00;;;18.88;50.66
82746;BME280;72484;50.004;14.356;2023-08-31T14:33:36;97649.16;;;18.91;50.44
82746;BME280;72484;50.004;14.356;2023-08-31T14:36:25;97645.81;;;18.89;50.10
82746;BME280;72484;50.004;14.356;2023-08-31T14:39:12;97646.95;;;18.91;51.03
82746;BME280;72484;50.004;14.356;2023-08-31T14:41:58;97639.81;;;18.93;51.08
82746;BME280;72484;50.004;14.356;2023-08-31T14:44:45;97638.88;;;18.95;51.62
82746;BME280;72484;50.004;14.356;2023-08-31T14:47:31;97645.59;;;18.96;51.57
82746;BME280;72484;50.004;14.356;2023-08-31T14:50:18;97643.61;;;18.97;51.35